« Back
NWS Peachtree City, Ga » Text Product » ATL Terminal Aerodrome Forecast


Printer-friendly Version
Current Version              Previous Versions:   1  2  3  4  5  6  7  8  9  

Terminal Aerodrome Forecast

147
FTUS42 KFFC 250528
TAFATL
TAF
KATL 250528Z 2506/2612 28004KT P6SM FEW060 BKN250
     FM251500 29007KT P6SM SCT045 BKN250
     FM251800 30008G15KT P6SM VCSH BKN060
     FM252300 30008KT P6SM SCT060
     FM260600 03006KT P6SM SCT250=

USA.gov is the U.S. government's official web portal to all federal, state and local government web resources and services.